Time;durP1;ratioP1;P1;durP2;ratioP2;P2;SDS_P1;SDS_P2;PMS_P1;PMS_P2;Temp;Humidity;BMP_temperature;BMP_pressure;BME280_temperature;BME280_humidity;BME280_pressure;Samples;Min_cycle;Max_cycle;Signal;HPM_P1;HPM_P2
2020/12/20 00:00:28;;;;;;;39.23;17.60;;;;;;;4.83;74.30;95604.97;5013310;28;20180;-72
2020/12/20 00:02:55;;;;;;;34.63;16.57;;;;;;;4.77;74.24;95602.41;5012161;28;20263;-74
2020/12/20 00:05:21;;;;;;;33.47;15.75;;;;;;;4.73;74.28;95606.69;5013303;28;20602;-74
2020/12/20 00:07:47;;;;;;;34.87;18.27;;;;;;;4.77;74.06;95597.13;5011541;28;20212;-74
2020/12/20 00:10:13;;;;;;;34.17;17.50;;;;;;;4.89;73.95;95603.81;5013260;28;20204;-73
2020/12/20 00:12:39;;;;;;;35.40;17.37;;;;;;;4.86;73.99;95605.16;5013400;28;20165;-75
2020/12/20 00:15:05;;;;;;;37.30;18.30;;;;;;;4.88;73.46;95602.22;5013411;28;20196;-72
2020/12/20 00:17:30;;;;;;;30.57;16.10;;;;;;;4.99;73.65;95611.53;5012798;28;20180;-75
2020/12/20 00:19:56;;;;;;;30.10;15.27;;;;;;;4.83;73.96;95611.03;5012995;28;20200;-73
2020/12/20 00:22:21;;;;;;;29.70;14.63;;;;;;;4.61;74.88;95616.94;5012755;28;20177;-73
2020/12/20 00:24:47;;;;;;;36.90;16.73;;;;;;;4.65;75.62;95619.78;5013094;28;20656;-73
2020/12/20 00:27:13;;;;;;;31.77;15.63;;;;;;;4.80;74.82;95616.91;5012716;28;20236;-74
2020/12/20 00:29:38;;;;;;;36.75;18.13;;;;;;;4.74;75.36;95615.41;5012231;28;20660;-75
2020/12/20 00:32:05;;;;;;;30.73;16.20;;;;;;;4.82;74.76;95606.81;5013240;28;20184;-74
2020/12/20 00:34:30;;;;;;;33.08;15.80;;;;;;;4.66;74.86;95602.84;5011535;28;20613;-72
2020/12/20 00:36:56;;;;;;;35.37;16.47;;;;;;;4.74;74.94;95612.78;5012756;28;20177;-74
2020/12/20 00:39:21;;;;;;;34.33;16.37;;;;;;;4.71;74.89;95608.84;5012605;28;20176;-74
2020/12/20 00:41:51;;;;;;;30.37;14.97;;;;;;;4.80;74.54;95611.59;5012553;28;20267;-74
2020/12/20 00:44:17;;;;;;;32.97;16.92;;;;;;;4.77;74.29;95615.63;5012503;28;20640;-74
2020/12/20 00:46:43;;;;;;;31.98;15.38;;;;;;;4.78;74.77;95616.41;5011595;28;20272;-74
2020/12/20 00:49:08;;;;;;;32.63;15.00;;;;;;;4.61;75.45;95614.31;5012488;28;20362;-74
2020/12/20 00:51:34;;;;;;;30.07;16.43;;;;;;;4.70;75.10;95611.78;5012488;28;20172;-74
2020/12/20 00:53:59;;;;;;;32.97;16.90;;;;;;;4.64;75.46;95608.41;5012384;28;20193;-72
2020/12/20 00:56:25;;;;;;;34.17;16.10;;;;;;;4.65;75.42;95609.19;5012424;28;20199;-75
2020/12/20 00:58:51;;;;;;;36.33;16.70;;;;;;;4.75;74.83;95604.53;5012397;28;20179;-75
2020/12/20 01:01:17;;;;;;;34.60;17.03;;;;;;;4.65;74.89;95594.13;5012564;28;20189;-74
2020/12/20 01:03:42;;;;;;;35.97;17.57;;;;;;;4.76;74.61;95605.31;5012689;28;20184;-73
2020/12/20 01:06:08;;;;;;;34.67;17.37;;;;;;;4.77;74.59;95607.69;5012105;28;20175;-75
2020/12/20 01:08:33;;;;;;;39.23;18.40;;;;;;;4.59;75.17;95608.50;5012044;28;20207;-73
2020/12/20 01:10:59;;;;;;;40.07;17.77;;;;;;;4.76;75.43;95605.31;5011980;28;20227;-73
2020/12/20 01:13:24;;;;;;;34.83;16.97;;;;;;;4.81;74.58;95599.16;5011904;28;20256;-75
2020/12/20 01:15:50;;;;;;;38.80;18.33;;;;;;;4.77;74.31;95597.13;4994127;28;20633;-74
2020/12/20 01:18:17;;;;;;;40.13;17.00;;;;;;;4.75;74.51;95593.16;5012276;28;20255;-74
2020/12/20 01:20:42;;;;;;;40.63;19.42;;;;;;;4.75;74.94;95593.94;5012800;28;20173;-74
2020/12/20 01:23:08;;;;;;;40.60;18.43;;;;;;;4.83;74.59;95589.88;5011856;28;20169;-74
2020/12/20 01:25:33;;;;;;;37.23;17.33;;;;;;;4.83;74.55;95589.88;5012011;28;20603;-74
2020/12/20 01:27:59;;;;;;;37.37;18.30;;;;;;;4.85;74.87;95593.00;5011491;28;20315;-73
2020/12/20 01:30:24;;;;;;;38.40;17.03;;;;;;;4.82;74.62;95592.78;5012145;28;20172;-73
2020/12/20 01:32:50;;;;;;;39.97;17.40;;;;;;;4.91;73.68;95593.69;5011844;28;20711;-73
2020/12/20 01:35:15;;;;;;;28.77;15.17;;;;;;;4.84;74.16;95582.72;5010853;28;20212;-74
2020/12/20 01:37:41;;;;;;;36.60;17.17;;;;;;;5.02;73.31;95592.44;5012136;28;20243;-74
2020/12/20 01:40:07;;;;;;;29.90;15.80;;;;;;;4.80;74.70;95585.16;5011975;28;20201;-73
2020/12/20 01:42:33;;;;;;;35.42;17.13;;;;;;;4.78;74.16;95582.03;5014677;28;20223;-74
2020/12/20 01:44:59;;;;;;;37.20;16.93;;;;;;;4.60;75.60;95580.19;5015436;28;20658;-73
2020/12/20 01:47:26;;;;;;;37.70;18.30;;;;;;;4.72;75.05;95585.81;5015529;28;20212;-72
2020/12/20 01:49:52;;;;;;;36.20;17.83;;;;;;;4.67;74.36;95586.69;5014275;28;20181;-73
2020/12/20 01:52:17;;;;;;;36.87;17.50;;;;;;;4.76;74.23;95581.50;5015815;28;20201;-73
2020/12/20 01:54:44;;;;;;;33.93;16.80;;;;;;;4.55;74.86;95581.06;5014454;28;20193;-73
2020/12/20 01:57:10;;;;;;;36.50;17.23;;;;;;;4.53;75.60;95583.22;5015395;28;20185;-73
2020/12/20 01:59:35;;;;;;;35.73;19.03;;;;;;;4.40;76.08;95586.59;5015154;28;20296;-74
2020/12/20 02:02:01;;;;;;;38.80;17.57;;;;;;;4.67;75.35;95581.41;5015522;28;20173;-74
2020/12/20 02:04:27;;;;;;;34.30;16.10;;;;;;;4.65;74.70;95580.09;5015282;28;20181;-75
2020/12/20 02:06:52;;;;;;;35.23;16.57;;;;;;;4.71;74.27;95574.47;5014213;28;20236;-73
2020/12/20 02:09:18;;;;;;;42.17;16.87;;;;;;;4.72;73.95;95581.31;5015711;28;20215;-71
2020/12/20 02:11:44;;;;;;;35.58;16.27;;;;;;;4.73;73.87;95582.09;5015171;28;20201;-72
2020/12/20 02:14:10;;;;;;;31.27;16.90;;;;;;;4.63;74.61;95584.91;5015047;28;20215;-74
2020/12/20 02:16:35;;;;;;;38.10;16.77;;;;;;;4.59;75.17;95589.19;5014883;28;20169;-74
2020/12/20 02:19:01;;;;;;;39.20;17.47;;;;;;;4.58;74.61;95585.00;5015444;28;20201;-74
2020/12/20 02:21:26;;;;;;;39.60;16.77;;;;;;;4.62;74.94;95580.69;5015310;28;20204;-74
2020/12/20 02:23:52;;;;;;;34.93;16.90;;;;;;;4.64;74.58;95560.03;5015444;28;20204;-74
2020/12/20 02:26:18;;;;;;;42.30;18.23;;;;;;;4.60;75.07;95575.72;5015336;28;20755;-74
2020/12/20 02:28:47;;;;;;;37.35;17.65;;;;;;;4.58;74.71;95579.69;5014875;28;20207;-75
2020/12/20 02:31:12;;;;;;;38.83;18.52;;;;;;;4.65;74.39;95585.41;5014743;28;20664;-75
2020/12/20 02:33:38;;;;;;;38.03;17.57;;;;;;;4.66;74.65;95579.84;5014696;28;20262;-73
2020/12/20 02:36:04;;;;;;;42.20;17.73;;;;;;;4.66;75.17;95574.53;5014843;28;20204;-72
2020/12/20 02:38:29;;;;;;;31.83;16.03;;;;;;;4.65;75.01;95574.81;5014467;28;20243;-71
2020/12/20 02:40:56;;;;;;;35.93;16.83;;;;;;;4.63;75.04;95579.63;5014958;28;20212;-73
2020/12/20 02:43:21;;;;;;;33.58;16.50;;;;;;;4.79;73.99;95575.66;5013608;28;20710;-75
2020/12/20 02:45:47;;;;;;;41.03;16.93;;;;;;;4.78;74.19;95577.50;5014542;28;20215;-74
2020/12/20 02:48:12;;;;;;;38.23;18.23;;;;;;;4.64;74.75;95570.59;5014315;28;20244;-73
2020/12/20 02:50:38;;;;;;;42.03;17.53;;;;;;;4.57;75.11;95580.78;5014709;28;20197;-73
2020/12/20 02:53:03;;;;;;;40.13;18.17;;;;;;;4.63;74.96;95577.75;5013740;28;20613;-74
2020/12/20 02:55:29;;;;;;;40.90;17.40;;;;;;;4.56;74.99;95579.22;5014482;28;20204;-74
2020/12/20 02:57:55;;;;;;;39.23;18.00;;;;;;;4.63;74.33;95579.63;5014477;28;20226;-72
2020/12/20 03:00:20;;;;;;;38.87;18.17;;;;;;;4.63;75.05;95577.75;5014565;28;20264;-73
2020/12/20 03:02:46;;;;;;;42.43;17.17;;;;;;;4.48;75.39;95573.50;5014450;28;20656;-74
2020/12/20 03:05:12;;;;;;;35.10;17.93;;;;;;;4.53;75.42;95579.78;5014097;28;20173;-75
2020/12/20 03:07:38;;;;;;;45.05;19.70;;;;;;;4.61;74.65;95571.19;5014369;28;20204;-75
2020/12/20 03:10:04;;;;;;;39.00;18.13;;;;;;;4.69;74.36;95579.25;5014059;28;20690;-74
2020/12/20 03:12:30;;;;;;;43.63;19.88;;;;;;;4.59;74.77;95574.13;5014239;28;20216;-74
2020/12/20 03:14:55;;;;;;;40.37;18.73;;;;;;;4.70;75.17;95572.09;5014032;28;20180;-75
2020/12/20 03:17:21;;;;;;;36.83;18.57;;;;;;;4.80;73.76;95571.13;5013989;28;20220;-74
2020/12/20 03:19:48;;;;;;;41.07;19.03;;;;;;;4.75;75.00;95566.72;5013663;28;20192;-74
2020/12/20 03:22:14;;;;;;;41.30;18.67;;;;;;;4.66;75.12;95571.91;5013967;28;20273;-75
2020/12/20 03:24:40;;;;;;;38.00;17.80;;;;;;;4.67;75.11;95565.53;5013541;28;20169;-71
2020/12/20 03:27:05;;;;;;;44.37;18.60;;;;;;;4.60;74.76;95565.13;5013436;28;20263;-70
2020/12/20 03:29:31;;;;;;;39.90;17.53;;;;;;;4.68;74.64;95569.75;5013807;28;20201;-71
2020/12/20 03:31:56;;;;;;;37.77;17.37;;;;;;;4.65;74.78;95566.88;5013514;28;20256;-72
2020/12/20 03:34:22;;;;;;;52.20;19.43;;;;;;;4.64;75.47;95570.59;5013796;28;20200;-72
2020/12/20 03:36:47;;;;;;;43.67;19.43;;;;;;;4.59;75.71;95571.47;5013313;28;20204;-74
2020/12/20 03:39:13;;;;;;;44.23;18.53;;;;;;;4.45;75.56;95568.78;5013582;28;20217;-72
2020/12/20 03:41:38;;;;;;;39.27;18.20;;;;;;;4.49;75.84;95574.31;5013339;28;20208;-72
2020/12/20 03:44:04;;;;;;;40.63;17.80;;;;;;;4.47;76.02;95571.13;5032782;28;20741;-72
2020/12/20 03:46:29;;;;;;;44.97;19.30;;;;;;;4.50;75.97;95571.34;5033176;28;20212;-74
2020/12/20 03:48:55;;;;;;;39.93;18.63;;;;;;;4.50;75.58;95575.88;5033389;28;20259;-73
2020/12/20 03:51:20;;;;;;;44.60;17.93;;;;;;;4.30;77.19;95570.88;5033282;28;20208;-73
2020/12/20 03:53:46;;;;;;;43.33;20.17;;;;;;;4.33;76.72;95559.75;5031363;28;20208;-71
2020/12/20 03:56:11;;;;;;;40.37;18.03;;;;;;;4.36;76.06;95562.59;5032999;28;20272;-74
2020/12/20 03:58:37;;;;;;;39.50;17.30;;;;;;;4.45;76.10;95568.78;5032927;28;20662;-72
2020/12/20 04:01:02;;;;;;;46.83;19.30;;;;;;;4.37;76.16;95571.28;5032957;28;20583;-71
2020/12/20 04:03:28;;;;;;;51.00;20.87;;;;;;;4.24;77.67;95570.97;5032352;28;20651;-72
2020/12/20 04:05:53;;;;;;;48.07;18.80;;;;;;;4.34;77.04;95577.97;5032640;28;20199;-73
2020/12/20 04:08:19;;;;;;;48.83;19.60;;;;;;;4.59;76.03;95578.63;5032459;28;20261;-75
2020/12/20 04:10:44;;;;;;;50.07;19.00;;;;;;;4.47;75.89;95574.56;5032845;28;20204;-71
2020/12/20 04:13:10;;;;;;;52.70;19.53;;;;;;;4.43;76.06;95560.38;5032542;28;20263;-73
2020/12/20 04:15:36;;;;;;;41.23;18.63;;;;;;;4.36;76.09;95580.31;5032681;28;20265;-72
2020/12/20 04:18:01;;;;;;;43.40;18.17;;;;;;;4.44;76.06;95577.81;5032655;28;20200;-72
2020/12/20 04:20:27;;;;;;;50.10;18.13;;;;;;;4.44;76.76;95583.09;5032484;28;20187;-72
2020/12/20 04:22:52;;;;;;;42.33;18.20;;;;;;;4.43;76.48;95586.81;5032988;28;20642;-78
2020/12/20 04:25:18;;;;;;;42.97;18.33;;;;;;;4.62;75.66;95583.34;5032451;28;20273;-75
2020/12/20 04:27:43;;;;;;;40.03;17.57;;;;;;;4.56;76.25;95581.84;5032385;28;20259;-72
2020/12/20 04:30:09;;;;;;;46.80;17.87;;;;;;;4.62;75.79;95572.75;5032154;28;20207;-72
2020/12/20 04:32:35;;;;;;;50.73;18.97;;;;;;;4.52;76.17;95589.56;5032372;28;20603;-73
2020/12/20 04:35:00;;;;;;;53.63;19.55;;;;;;;4.58;76.73;95580.47;5032244;28;20554;-73
2020/12/20 04:37:26;;;;;;;41.33;19.13;;;;;;;4.64;75.93;95581.19;5032474;28;20184;-73
2020/12/20 04:39:52;;;;;;;47.50;19.50;;;;;;;4.84;75.20;95588.00;5032448;28;20211;-73
2020/12/20 04:42:17;;;;;;;49.80;19.67;;;;;;;4.84;75.33;95586.16;5032016;28;20200;-73
2020/12/20 04:44:43;;;;;;;48.83;19.23;;;;;;;4.75;75.77;95585.22;5031066;28;20216;-74
2020/12/20 04:47:09;;;;;;;51.43;19.17;;;;;;;4.74;75.50;95570.44;5030641;28;20168;-74
2020/12/20 04:49:35;;;;;;;44.65;18.35;;;;;;;4.68;75.50;95576.91;5030735;28;20176;-75
2020/12/20 04:52:01;;;;;;;49.47;18.93;;;;;;;4.75;75.66;95585.22;5030961;28;20180;-72
2020/12/20 04:54:26;;;;;;;48.33;18.13;;;;;;;4.71;75.54;95578.94;5031269;28;20622;-73
2020/12/20 04:56:52;;;;;;;45.23;18.67;;;;;;;4.77;75.82;95578.59;5032212;28;20260;-72
2020/12/20 04:59:17;;;;;;;43.73;17.73;;;;;;;4.78;74.96;95582.03;5032057;28;20207;-72
2020/12/20 05:01:43;;;;;;;48.37;17.23;;;;;;;4.79;75.27;95580.94;5031643;28;20208;-71
2020/12/20 05:04:09;;;;;;;42.40;17.87;;;;;;;4.86;75.34;95573.41;5032109;28;20204;-73
2020/12/20 05:06:34;;;;;;;48.07;17.77;;;;;;;4.52;76.39;95579.00;5032119;28;20242;-72
2020/12/20 05:09:05;;;;;;;42.63;16.83;;;;;;;4.56;75.79;95573.94;5031738;28;20246;-73
2020/12/20 05:11:41;;;;;;;40.28;17.40;;;;;;;4.66;75.85;95581.69;5031949;28;20240;-74
2020/12/20 05:14:07;;;;;;;38.20;17.73;;;;;;;4.44;76.11;95587.59;5031394;28;20651;-75
2020/12/20 05:16:36;;;;;;;42.27;16.67;;;;;;;4.45;76.09;95586.53;5031794;28;20176;-72
2020/12/20 05:19:03;;;;;;;37.95;16.60;;;;;;;4.40;75.60;95591.88;5031347;28;20210;-74
2020/12/20 05:21:29;;;;;;;45.80;17.17;;;;;;;4.54;75.30;95592.72;5031976;28;20184;-75
2020/12/20 05:23:55;;;;;;;34.38;16.10;;;;;;;4.66;74.81;95597.56;5031587;28;20184;-75
2020/12/20 05:26:25;;;;;;;39.90;16.77;;;;;;;4.69;74.26;95596.97;5031882;28;20239;-74
2020/12/20 05:28:50;;;;;;;41.42;16.58;;;;;;;4.70;74.60;95594.03;5031668;28;20226;-74
2020/12/20 05:31:16;;;;;;;37.73;16.53;;;;;;;4.64;74.23;95581.19;5031484;28;20188;-73
2020/12/20 05:33:42;;;;;;;41.60;17.23;;;;;;;4.60;74.19;95583.63;5031204;28;20218;-72
2020/12/20 05:36:07;;;;;;;37.87;16.07;;;;;;;4.61;74.72;95595.00;5030668;28;20176;-74
2020/12/20 05:38:34;;;;;;;39.33;16.30;;;;;;;4.65;74.94;95603.91;5030476;28;20189;-74
2020/12/20 05:41:00;;;;;;;34.95;15.45;;;;;;;4.36;76.24;95604.09;5031565;28;20238;-76
2020/12/20 05:43:26;;;;;;;38.57;15.57;;;;;;;4.53;74.72;95601.72;5031793;28;20262;-75
2020/12/20 05:45:52;;;;;;;39.42;15.77;;;;;;;4.56;74.75;95611.72;5031527;28;20165;-70
2020/12/20 05:48:23;;;;;;;41.15;16.48;;;;;;;4.43;75.81;95605.31;5030011;28;20216;-74
2020/12/20 05:51:07;;;;;;;38.75;16.10;;;;;;;4.50;75.39;95611.03;5031331;28;20215;-72
2020/12/20 05:53:33;;;;;;;37.55;15.88;;;;;;;4.60;74.74;95615.38;5031682;28;20251;-73
2020/12/20 05:55:59;;;;;;;39.70;16.65;;;;;;;4.35;76.42;95616.53;5031332;28;20165;-74
2020/12/20 05:58:31;;;;;;;40.92;15.82;;;;;;;4.48;75.29;95610.50;5031630;28;20185;-73
2020/12/20 06:00:57;;;;;;;43.03;17.30;;;;;;;4.43;75.94;95612.44;5031813;28;20770;-74
2020/12/20 06:03:23;;;;;;;39.57;16.63;;;;;;;4.58;74.85;95614.09;5031458;28;20211;-75
2020/12/20 06:05:49;;;;;;;40.87;16.13;;;;;;;4.61;75.03;95624.09;5031213;28;20559;-70
2020/12/20 06:08:16;;;;;;;38.73;17.13;;;;;;;4.62;74.49;95605.28;5031173;28;20255;-73
2020/12/20 06:10:46;;;;;;;45.42;16.63;;;;;;;4.72;75.47;95623.66;5031200;28;20658;-72
2020/12/20 06:13:14;;;;;;;38.35;14.98;;;;;;;4.51;75.53;95630.31;5031495;28;20180;-71
2020/12/20 06:15:42;;;;;;;43.42;16.70;;;;;;;4.60;75.41;95630.44;5031109;28;20694;-76
2020/12/20 06:18:16;;;;;;;39.95;15.88;;;;;;;4.74;74.95;95624.13;5031665;28;20547;-72
2020/12/20 06:20:55;;;;;;;37.00;15.90;;;;;;;4.47;75.27;95624.81;5029800;28;20172;-71
2020/12/20 06:23:23;;;;;;;36.30;15.30;;;;;;;4.39;75.80;95633.41;5029977;28;20187;-72
2020/12/20 06:25:49;;;;;;;33.53;15.32;;;;;;;4.63;74.99;95629.88;5031380;28;20175;-72
2020/12/20 06:28:17;;;;;;;26.13;14.43;;;;;;;4.70;75.04;95632.94;5033385;28;20200;-73
2020/12/20 06:30:43;;;;;;;36.08;15.32;;;;;;;4.68;74.45;95641.16;5032934;28;20185;-73
2020/12/20 06:33:13;;;;;;;30.02;15.25;;;;;;;4.42;75.85;95637.31;5034709;28;20178;-73
2020/12/20 06:35:39;;;;;;;39.67;15.23;;;;;;;4.49;74.88;95637.78;5033362;28;20177;-70
2020/12/20 06:38:05;;;;;;;38.20;15.23;;;;;;;4.57;75.55;95638.97;5016914;28;20184;-73
2020/12/20 06:40:30;;;;;;;38.27;15.80;;;;;;;4.60;74.56;95647.13;5016546;28;20180;-72
2020/12/20 06:42:58;;;;;;;38.37;14.80;;;;;;;4.69;74.90;95641.94;5034249;28;20566;-72
2020/12/20 06:45:24;;;;;;;36.47;14.90;;;;;;;4.72;75.05;95647.47;5034573;28;20556;-71
2020/12/20 06:47:55;;;;;;;35.97;14.77;;;;;;;4.85;74.39;95648.56;5033865;28;20208;-73
2020/12/20 06:50:39;;;;;;;41.03;15.85;;;;;;;4.84;73.92;95646.22;5033179;28;20602;-73
2020/12/20 06:53:05;;;;;;;38.88;16.20;;;;;;;4.81;74.34;95644.13;5034230;28;20164;-74
2020/12/20 06:55:30;;;;;;;31.85;14.23;;;;;;;4.86;74.22;95641.41;5033755;28;20561;-73
2020/12/20 06:58:02;;;;;;;35.90;15.17;;;;;;;4.91;73.94;95646.63;5034099;28;20200;-73
2020/12/20 07:00:44;;;;;;;35.95;14.98;;;;;;;4.77;74.19;95650.03;5034295;28;20204;-71
2020/12/20 07:03:25;;;;;;;37.65;15.55;;;;;;;4.77;74.83;95657.97;5034107;28;20566;-74
2020/12/20 07:05:50;;;;;;;39.80;14.82;;;;;;;4.77;74.55;95655.31;5033882;28;20176;-75
2020/12/20 07:08:23;;;;;;;37.67;15.37;;;;;;;4.78;75.22;95650.81;5033332;28;20577;-74
2020/12/20 07:10:50;;;;;;;35.00;15.10;;;;;;;4.82;74.31;95645.72;5032541;28;20690;-71
2020/12/20 07:13:16;;;;;;;33.63;16.10;;;;;;;4.81;74.66;95644.13;5033915;28;20258;-72
2020/12/20 07:15:51;;;;;;;36.15;15.10;;;;;;;4.89;75.30;95646.94;5031990;28;20724;-73
2020/12/20 07:18:41;;;;;;;35.97;15.32;;;;;;;5.00;74.27;95663.44;5033798;28;20171;-71
2020/12/20 07:21:31;;;;;;;36.45;15.63;;;;;;;4.88;74.20;95658.59;5033500;28;20294;-71
2020/12/20 07:24:13;;;;;;;35.17;15.20;;;;;;;4.76;74.57;95652.94;4992167;28;20224;-74
2020/12/20 07:26:39;;;;;;;45.17;16.88;;;;;;;4.83;74.99;95653.38;4991879;28;20225;-70
2020/12/20 07:29:05;;;;;;;37.53;15.63;;;;;;;4.69;75.22;95660.47;4991649;28;20221;-74
2020/12/20 07:31:31;;;;;;;40.35;15.38;;;;;;;4.71;75.40;95643.25;4991833;28;20182;-71
2020/12/20 07:33:57;;;;;;;36.07;15.33;;;;;;;5.04;76.36;95646.66;4992088;28;20280;-73
2020/12/20 07:36:23;;;;;;;41.92;15.13;;;;;;;4.90;74.71;95656.44;4991561;28;20182;-73
2020/12/20 07:38:49;;;;;;;36.08;16.23;;;;;;;4.98;74.00;95653.09;4992146;28;20185;-72
2020/12/20 07:41:16;;;;;;;40.57;16.67;;;;;;;4.93;74.26;95650.53;4991835;28;20581;-71
2020/12/20 07:43:47;;;;;;;36.28;15.82;;;;;;;4.94;74.20;95660.06;4975685;28;20182;-72
2020/12/20 07:46:14;;;;;;;41.00;15.38;;;;;;;5.07;73.89;95661.19;4991576;28;20205;-72
2020/12/20 07:48:40;;;;;;;32.97;14.00;;;;;;;5.06;73.38;95661.47;4991549;28;20375;-71
2020/12/20 07:51:09;;;;;;;35.57;14.67;;;;;;;5.02;73.25;95656.75;4991519;28;21269;-72
2020/12/20 07:53:36;;;;;;;33.78;15.73;;;;;;;5.10;73.11;95665.09;4971925;28;20190;-72
2020/12/20 07:56:01;;;;;;;36.50;16.02;;;;;;;4.90;74.47;95640.56;4971832;28;20189;-73
2020/12/20 07:58:30;;;;;;;38.07;16.23;;;;;;;4.99;74.08;95657.34;4971997;28;20262;-75
2020/12/20 08:01:05;;;;;;;36.53;14.90;;;;;;;4.98;74.18;95655.75;4997259;28;20193;-71
2020/12/20 08:03:31;;;;;;;40.72;15.98;;;;;;;4.92;74.59;95656.13;5018773;28;20669;-73
2020/12/20 08:06:10;;;;;;;34.22;15.52;;;;;;;4.98;73.95;95654.97;5032457;28;20207;-72
2020/12/20 08:08:39;;;;;;;30.27;14.57;;;;;;;4.72;75.26;95652.75;5032548;28;20674;-72
2020/12/20 08:11:17;;;;;;;38.60;16.30;;;;;;;4.89;74.58;95652.22;5032200;28;20259;-71
2020/12/20 08:13:53;;;;;;;35.78;15.90;;;;;;;5.00;73.53;95653.63;5024839;28;20215;-70
2020/12/20 08:16:21;;;;;;;33.78;15.60;;;;;;;4.95;74.30;95659.00;5011232;28;20723;-70
2020/12/20 08:19:00;;;;;;;37.65;17.17;;;;;;;4.94;74.83;95662.72;5013018;28;20338;-70
2020/12/20 08:21:50;;;;;;;35.65;16.10;;;;;;;5.09;73.58;95666.19;5009987;28;20231;-70
2020/12/20 08:24:16;;;;;;;40.13;15.93;;;;;;;4.86;74.51;95655.44;5019996;28;20595;-70
2020/12/20 08:26:42;;;;;;;35.47;15.97;;;;;;;4.91;74.83;95658.00;5011125;28;20292;-71
2020/12/20 08:29:08;;;;;;;41.78;16.58;;;;;;;4.96;73.86;95670.38;5011503;28;20224;-71
2020/12/20 08:31:34;;;;;;;37.53;17.73;;;;;;;4.95;74.34;95664.28;5011019;28;20677;-70
2020/12/20 08:33:59;;;;;;;37.07;16.07;;;;;;;4.99;74.26;95662.66;5021235;28;20180;-70
2020/12/20 08:36:25;;;;;;;36.93;15.63;;;;;;;5.03;73.92;95652.25;5030471;28;20262;-70
2020/12/20 08:38:51;;;;;;;37.28;17.33;;;;;;;5.07;73.68;95655.88;5030224;28;20560;-70
2020/12/20 08:41:26;;;;;;;38.77;16.50;;;;;;;4.99;74.17;95654.69;5031630;28;20180;-72
2020/12/20 08:44:12;;;;;;;34.72;16.60;;;;;;;4.91;75.40;95649.28;5023925;28;20172;-70
2020/12/20 08:46:39;;;;;;;42.63;15.70;;;;;;;5.09;73.90;95650.28;5011979;28;20609;-74
2020/12/20 08:49:18;;;;;;;44.73;16.43;;;;;;;4.79;75.03;95641.78;5027695;28;20195;-71
2020/12/20 08:51:44;;;;;;;35.28;16.48;;;;;;;5.06;74.09;95650.91;5029983;28;20819;-71
2020/12/20 08:54:13;;;;;;;45.23;17.63;;;;;;;5.16;73.33;95648.03;5031408;28;20730;-71
2020/12/20 08:57:06;;;;;;;37.25;16.15;;;;;;;5.06;73.44;95664.91;5031536;28;20211;-70
2020/12/20 08:59:36;;;;;;;42.57;17.53;;;;;;;8.94;94.44;95667.81;5028802;28;20258;-73
2020/12/20 09:02:02;;;;;;;33.40;15.00;;;;;;;11.46;84.79;95661.06;5031926;28;20681;-73
2020/12/20 09:04:29;;;;;;;33.97;15.00;;;;;;;9.08;83.12;95654.31;5031586;28;20657;-71
2020/12/20 09:07:01;;;;;;;34.67;16.63;;;;;;;7.38;77.43;95646.19;5031563;28;20657;-73
2020/12/20 09:09:27;;;;;;;38.33;16.53;;;;;;;6.56;69.28;95647.38;5031178;28;20638;-72
2020/12/20 09:11:52;;;;;;;84.10;20.63;;;;;;;6.45;69.44;95661.19;5031537;28;20987;-69
2020/12/20 09:14:18;;;;;;;34.30;16.03;;;;;;;6.13;69.55;95657.63;5020750;28;20532;-69
2020/12/20 09:16:44;;;;;;;30.60;14.77;;;;;;;5.91;70.43;95649.56;5011456;28;20169;-72
2020/12/20 09:19:11;;;;;;;33.30;15.40;;;;;;;5.88;69.53;95637.69;5011964;28;20671;-71
2020/12/20 09:21:36;;;;;;;30.43;14.67;;;;;;;5.87;70.47;95648.59;5011581;28;20177;-74
2020/12/20 09:24:02;;;;;;;30.33;14.57;;;;;;;5.76;70.38;95654.09;5019089;28;21043;-71
2020/12/20 09:26:27;;;;;;;34.70;14.67;;;;;;;5.55;71.26;95645.75;5030911;28;20227;-72
2020/12/20 09:28:53;;;;;;;33.97;16.23;;;;;;;5.42;71.09;95643.88;5031017;28;20294;-73
2020/12/20 09:31:20;;;;;;;31.37;14.33;;;;;;;5.42;71.67;95651.03;5031181;28;20195;-70
2020/12/20 09:33:49;;;;;;;33.22;14.25;;;;;;;5.36;71.44;95647.69;5025794;28;20178;-71
2020/12/20 09:36:21;;;;;;;32.17;14.55;;;;;;;5.38;72.24;95639.44;5011470;28;20181;-72
2020/12/20 09:38:47;;;;;;;31.92;15.18;;;;;;;5.47;71.80;95640.34;5011518;28;20269;-71
2020/12/20 09:41:17;;;;;;;36.20;14.90;;;;;;;5.43;71.85;95634.84;5011073;28;20192;-73
2020/12/20 09:43:43;;;;;;;31.20;14.45;;;;;;;5.39;71.60;95639.19;5010702;28;20781;-71
2020/12/20 09:46:18;;;;;;;37.00;16.07;;;;;;;5.43;71.26;95634.06;5011474;28;20185;-72
2020/12/20 09:48:44;;;;;;;38.43;14.83;;;;;;;5.39;71.63;95628.59;5011397;28;20649;-73
2020/12/20 09:51:09;;;;;;;33.40;14.43;;;;;;;5.33;71.97;95624.44;5011393;28;20943;-74
2020/12/20 09:53:35;;;;;;;32.27;14.77;;;;;;;5.34;72.25;95626.03;5011178;28;20180;-72
2020/12/20 09:56:00;;;;;;;27.30;13.50;;;;;;;5.40;71.24;95630.16;5011200;28;20173;-72
2020/12/20 09:58:28;;;;;;;30.47;13.63;;;;;;;5.37;71.08;95635.25;5011981;28;20748;-71
2020/12/20 10:00:53;;;;;;;37.67;14.43;;;;;;;5.28;71.58;95633.28;5030913;28;20263;-71
2020/12/20 10:03:19;;;;;;;28.00;14.67;;;;;;;5.31;71.79;95635.31;5032472;28;20197;-72
2020/12/20 10:05:45;;;;;;;24.30;12.67;;;;;;;5.12;72.24;95620.59;5035059;28;20152;-72
2020/12/20 10:08:13;;;;;;;34.80;15.17;;;;;;;5.06;72.47;95627.06;5034758;28;20196;-72
2020/12/20 10:10:38;;;;;;;35.28;14.98;;;;;;;5.15;72.68;95625.31;5034996;28;21169;-71
2020/12/20 10:13:04;;;;;;;31.17;15.40;;;;;;;5.44;71.38;95625.03;5034297;28;20217;-71
2020/12/20 10:15:29;;;;;;;28.17;13.47;;;;;;;5.36;70.71;95620.44;5016550;28;20208;-73
2020/12/20 10:17:56;;;;;;;30.40;13.77;;;;;;;5.28;71.51;95613.97;5014885;28;20200;-73
2020/12/20 10:20:21;;;;;;;35.53;16.07;;;;;;;5.30;71.13;95625.03;5013523;28;20176;-71
2020/12/20 10:22:47;;;;;;;29.10;14.20;;;;;;;5.38;70.57;95615.63;5014631;28;20587;-72
2020/12/20 10:25:12;;;;;;;28.10;13.73;;;;;;;5.32;70.62;95614.94;5014436;28;20368;-73
2020/12/20 10:27:39;;;;;;;35.23;15.47;;;;;;;7.01;91.17;95620.84;5014549;28;20275;-76
2020/12/20 10:30:05;;;;;;;28.10;12.50;;;;;;;7.24;82.05;95623.44;5014660;28;20181;-72
2020/12/20 10:32:30;;;;;;;26.87;14.27;;;;;;;6.24;69.01;95615.78;5014813;28;20575;-71
2020/12/20 10:34:56;;;;;;;29.97;14.50;;;;;;;5.92;69.06;95609.53;5022133;28;20264;-70
2020/12/20 10:37:21;;;;;;;28.00;13.27;;;;;;;5.67;69.04;95610.00;5014393;28;20307;-75
2020/12/20 10:39:47;;;;;;;26.60;13.33;;;;;;;5.61;69.07;95611.97;5014626;28;20194;-76
2020/12/20 10:42:15;;;;;;;30.53;14.10;;;;;;;5.45;69.90;95614.16;5015444;28;20169;-74
2020/12/20 10:44:42;;;;;;;27.40;13.53;;;;;;;5.30;70.55;95606.50;5014422;28;20185;-78
2020/12/20 10:47:07;;;;;;;31.90;15.60;;;;;;;5.22;70.58;95597.38;5014398;28;20588;-72
2020/12/20 10:49:33;;;;;;;27.97;12.77;;;;;;;5.22;70.00;95610.63;5014505;28;20695;-74
2020/12/20 10:51:58;;;;;;;24.97;12.93;;;;;;;8.39;92.02;95612.53;5014338;28;20648;-73
2020/12/20 10:54:29;;;;;;;27.60;13.73;;;;;;;10.77;76.35;95614.38;5013551;28;21195;-73
2020/12/20 10:56:55;;;;;;;23.60;11.27;;;;;;;10.05;62.11;95602.97;5018787;28;20165;-75
2020/12/20 10:59:21;;;;;;;24.60;12.00;;;;;;;10.40;60.78;95606.22;5031326;28;20601;-73
2020/12/20 11:01:49;;;;;;;17.50;10.93;;;;;;;9.48;55.58;95598.88;5033607;28;20586;-74
2020/12/20 11:04:15;;;;;;;21.43;11.83;;;;;;;10.74;62.49;95599.81;5033921;28;20635;-73
2020/12/20 11:06:40;;;;;;;20.67;11.43;;;;;;;11.13;59.96;95597.69;5023857;28;20634;-74
2020/12/20 11:09:06;;;;;;;24.40;12.30;;;;;;;9.46;54.71;95593.06;5014171;28;20232;-78
2020/12/20 11:11:31;;;;;;;20.47;11.77;;;;;;;8.12;58.54;95605.59;5013880;28;20169;-74
2020/12/20 11:13:58;;;;;;;25.10;12.73;;;;;;;7.32;61.19;95598.81;5014059;28;20629;-75
2020/12/20 11:16:23;;;;;;;23.40;12.30;;;;;;;6.84;62.93;95586.22;5014327;28;20651;-73
2020/12/20 11:18:49;;;;;;;20.83;12.43;;;;;;;6.53;64.06;95594.94;5012648;28;20563;-75
2020/12/20 11:21:16;;;;;;;24.97;13.53;;;;;;;6.20;66.02;95582.97;5014205;28;20545;-76
2020/12/20 11:23:42;;;;;;;26.80;12.93;;;;;;;6.01;67.23;95599.81;5012548;28;20272;-75